createdAt,value
2022-08-16T00:03:15.964Z,1009.35
2022-08-16T00:08:36.144Z,1009.41
2022-08-16T00:13:13.342Z,1009.38
2022-08-16T00:18:12.642Z,1009.49
2022-08-16T00:23:12.845Z,1009.54
2022-08-16T00:28:12.069Z,1009.52
2022-08-16T00:33:12.393Z,1009.51
2022-08-16T00:38:40.718Z,1009.62
2022-08-16T00:43:12.287Z,1009.69
2022-08-16T00:48:30.638Z,1009.65
2022-08-16T00:53:08.054Z,1009.58
2022-08-16T00:58:13.223Z,1009.60
2022-08-16T01:03:04.833Z,1009.57
2022-08-16T01:08:34.908Z,1009.53
2022-08-16T01:13:05.604Z,1009.57
2022-08-16T01:18:05.938Z,1009.52
2022-08-16T01:23:03.080Z,1009.51
2022-08-16T01:28:03.997Z,1009.48
2022-08-16T01:33:15.003Z,1009.54
2022-08-16T01:38:01.573Z,1009.58
2022-08-16T01:43:01.821Z,1009.53
2022-08-16T01:47:59.963Z,1009.54
2022-08-16T01:52:59.052Z,1009.52
2022-08-16T01:57:58.457Z,1009.57
2022-08-16T02:02:58.649Z,1009.51
2022-08-16T02:07:56.882Z,1009.46
2022-08-16T02:13:00.754Z,1009.43
2022-08-16T02:17:54.302Z,1009.39
2022-08-16T02:22:55.500Z,1009.35
2022-08-16T02:27:53.451Z,1009.28
2022-08-16T02:32:51.925Z,1009.28
2022-08-16T02:37:53.655Z,1009.26
2022-08-16T02:42:52.184Z,1009.18
2022-08-16T02:48:00.978Z,1009.18
2022-08-16T02:52:49.777Z,1009.13
2022-08-16T02:57:54.444Z,1009.14
2022-08-16T03:02:48.122Z,1009.18
2022-08-16T03:07:50.472Z,1009.05
2022-08-16T03:12:55.130Z,1008.96
2022-08-16T03:17:53.229Z,1008.98
2022-08-16T03:22:45.319Z,1008.88
2022-08-16T03:27:43.696Z,1008.84
2022-08-16T03:32:44.527Z,1008.87
2022-08-16T03:38:01.465Z,1008.90
2022-08-16T03:43:18.869Z,1008.81
2022-08-16T03:47:42.127Z,1008.81
2022-08-16T03:52:43.818Z,1008.87
2022-08-16T03:57:40.619Z,1008.94
2022-08-16T04:02:36.821Z,1009.07
2022-08-16T04:07:38.970Z,1009.00
2022-08-16T04:12:53.309Z,1008.98
2022-08-16T04:17:35.503Z,1008.98
2022-08-16T04:22:33.817Z,1009.00
2022-08-16T04:27:35.114Z,1009.04
2022-08-16T04:32:33.403Z,1009.05
2022-08-16T04:37:32.714Z,1009.10
2022-08-16T04:42:35.950Z,1009.22
2022-08-16T04:47:33.104Z,1009.16
2022-08-16T04:52:33.518Z,1009.17
2022-08-16T04:57:30.135Z,1009.16
2022-08-16T05:02:42.499Z,1009.13
2022-08-16T05:07:28.081Z,1009.22
2022-08-16T05:12:30.721Z,1009.25
2022-08-16T05:17:27.616Z,1009.25
2022-08-16T05:22:28.261Z,1009.18
2022-08-16T05:27:27.179Z,1009.20
2022-08-16T05:32:32.363Z,1009.18
2022-08-16T05:37:24.623Z,1009.08
2022-08-16T05:42:22.744Z,1009.13
2022-08-16T05:47:21.966Z,1009.04
2022-08-16T05:52:22.229Z,1009.10
2022-08-16T05:57:20.629Z,1009.05
2022-08-16T06:02:20.750Z,1009.05
2022-08-16T06:07:25.192Z,1009.14
2022-08-16T06:12:27.177Z,1009.11
2022-08-16T06:17:18.311Z,1009.14
2022-08-16T06:22:19.376Z,1009.04
2022-08-16T06:27:17.718Z,1009.09
2022-08-16T06:32:27.140Z,1009.12
2022-08-16T06:37:14.191Z,1009.12
2022-08-16T06:42:13.674Z,1009.07
2022-08-16T06:47:12.817Z,1009.16
2022-08-16T06:52:58.516Z,1009.03
2022-08-16T06:57:16.691Z,1008.92
2022-08-16T07:02:33.349Z,1008.96
2022-08-16T07:07:10.549Z,1008.95
2022-08-16T07:12:09.750Z,1008.94
2022-08-16T07:17:11.439Z,1008.94
2022-08-16T07:22:07.240Z,1008.97
2022-08-16T07:27:08.490Z,1008.87
2022-08-16T07:32:06.802Z,1008.94
2022-08-16T07:37:06.911Z,1008.94
2022-08-16T07:42:06.874Z,1008.87
2022-08-16T07:47:04.554Z,1008.86
2022-08-16T07:52:19.055Z,1008.80
2022-08-16T07:57:01.054Z,1008.88
2022-08-16T08:02:02.313Z,1008.91
2022-08-16T08:06:59.658Z,1008.97
2022-08-16T08:12:01.370Z,1009.10
2022-08-16T08:16:59.011Z,1009.07
2022-08-16T08:22:02.388Z,1009.03
2022-08-16T08:26:57.635Z,1009.04
2022-08-16T08:31:56.793Z,1009.11
2022-08-16T08:36:55.959Z,1009.09
2022-08-16T08:41:56.292Z,1008.96
2022-08-16T08:47:00.107Z,1008.95
2022-08-16T08:51:54.642Z,1008.99
2022-08-16T08:56:53.024Z,1008.99
2022-08-16T09:01:57.639Z,1009.06
2022-08-16T09:06:51.323Z,1009.01
2022-08-16T09:12:04.456Z,1009.01
2022-08-16T09:17:03.177Z,1008.94
2022-08-16T09:21:56.263Z,1008.86
2022-08-16T09:26:52.457Z,1008.88
2022-08-16T09:31:47.452Z,1008.89
2022-08-16T09:36:46.610Z,1008.82
2022-08-16T09:41:53.880Z,1008.87
2022-08-16T09:46:49.384Z,1008.86
2022-08-16T09:51:45.145Z,1008.76
2022-08-16T09:56:52.547Z,1008.79
2022-08-16T10:01:43.444Z,1008.73
2022-08-16T10:06:46.322Z,1008.68
2022-08-16T10:11:50.027Z,1008.66
2022-08-16T10:16:40.375Z,1008.63
2022-08-16T10:21:40.701Z,1008.65
2022-08-16T10:27:18.753Z,1008.66
2022-08-16T10:31:45.308Z,1008.65
2022-08-16T10:36:38.623Z,1008.69
2022-08-16T10:41:36.604Z,1008.65
2022-08-16T10:46:41.649Z,1008.61
2022-08-16T10:52:01.565Z,1008.59
2022-08-16T10:56:52.240Z,1008.51
2022-08-16T11:01:43.024Z,1008.52
2022-08-16T11:06:32.664Z,1008.59
2022-08-16T11:11:33.855Z,1008.62
2022-08-16T11:21:31.285Z,1008.64
2022-08-16T11:26:29.538Z,1008.64
2022-08-16T11:31:28.821Z,1008.62
2022-08-16T11:36:30.121Z,1008.60
2022-08-16T11:41:26.568Z,1008.55
2022-08-16T11:46:44.833Z,1008.56
2022-08-16T11:51:25.748Z,1008.59
2022-08-16T11:57:03.653Z,1008.56
2022-08-16T12:01:29.422Z,1008.57
2022-08-16T12:06:30.325Z,1008.63
2022-08-16T12:11:22.831Z,1008.48
2022-08-16T12:16:22.083Z,1008.49
2022-08-16T12:21:21.198Z,1008.44
2022-08-16T12:26:20.580Z,1008.41
2022-08-16T12:31:19.704Z,1008.40
2022-08-16T12:36:20.920Z,1008.33
2022-08-16T12:41:24.390Z,1008.26
2022-08-16T12:46:17.370Z,1008.30
2022-08-16T12:51:23.845Z,1008.19
2022-08-16T12:56:16.838Z,1008.16
2022-08-16T13:01:14.074Z,1008.05
2022-08-16T13:06:20.178Z,1007.98
2022-08-16T13:11:15.486Z,1007.98
2022-08-16T13:16:20.077Z,1007.96
2022-08-16T13:21:11.989Z,1007.96
2022-08-16T13:26:12.083Z,1007.94
2022-08-16T13:31:11.372Z,1007.90
2022-08-16T13:36:17.237Z,1007.92
2022-08-16T13:41:08.939Z,1007.86
2022-08-16T13:46:08.088Z,1007.84
2022-08-16T13:51:07.352Z,1007.80
2022-08-16T13:56:07.459Z,1007.77
2022-08-16T14:01:09.510Z,1007.74
2022-08-16T14:06:05.015Z,1007.84
2022-08-16T14:11:06.114Z,1007.69
2022-08-16T14:16:04.286Z,1007.66
2022-08-16T14:21:04.449Z,1007.67
2022-08-16T14:26:01.825Z,1007.66
2022-08-16T14:31:01.069Z,1007.64
2022-08-16T14:36:01.272Z,1007.59
2022-08-16T14:40:59.391Z,1007.58
2022-08-16T14:45:59.739Z,1007.65
2022-08-16T14:50:58.093Z,1007.65
2022-08-16T14:55:58.305Z,1007.62
2022-08-16T15:00:56.531Z,1007.55
2022-08-16T15:05:55.826Z,1007.57
2022-08-16T15:10:57.135Z,1007.55
2022-08-16T15:15:57.514Z,1007.54
2022-08-16T15:20:53.612Z,1007.49
2022-08-16T15:26:02.530Z,1007.49
2022-08-16T15:31:00.510Z,1007.47
2022-08-16T15:35:51.321Z,1007.48
2022-08-16T15:40:57.989Z,1007.46
2022-08-16T15:45:55.537Z,1007.43
2022-08-16T15:50:48.861Z,1007.49
2022-08-16T15:55:48.087Z,1007.57
2022-08-16T16:00:48.442Z,1007.58
2022-08-16T16:05:48.770Z,1007.56
2022-08-16T16:10:54.268Z,1007.53
2022-08-16T16:15:45.208Z,1007.54
2022-08-16T16:20:45.333Z,1007.53
2022-08-16T16:25:44.730Z,1007.49
2022-08-16T16:30:44.827Z,1007.50
2022-08-16T16:35:42.182Z,1007.58
2022-08-16T16:40:46.218Z,1007.59
2022-08-16T16:45:41.697Z,1007.52
2022-08-16T16:50:39.965Z,1007.56
2022-08-16T16:55:43.525Z,1007.55
2022-08-16T17:00:38.514Z,1007.47
2022-08-16T17:05:39.631Z,1007.48
2022-08-16T17:10:46.515Z,1007.46
2022-08-16T17:15:36.800Z,1007.47
2022-08-16T17:20:37.480Z,1007.52
2022-08-16T17:25:36.832Z,1007.44
2022-08-16T17:35:34.698Z,1007.55
2022-08-16T17:39:27.056Z,1007.41
2022-08-16T17:40:47.246Z,1007.55
2022-08-16T17:45:31.706Z,1007.56
2022-08-16T17:50:30.839Z,1007.57
2022-08-16T17:55:29.988Z,1007.66
2022-08-16T18:00:31.167Z,1007.76
2022-08-16T18:05:28.313Z,1007.72
2022-08-16T18:10:33.490Z,1007.76
2022-08-16T18:15:26.811Z,1007.69
2022-08-16T18:20:26.006Z,1007.71
2022-08-16T18:25:26.155Z,1007.74
2022-08-16T18:30:25.306Z,1007.71
2022-08-16T18:35:24.479Z,1007.71
2022-08-16T18:40:23.646Z,1007.77
2022-08-16T18:45:21.762Z,1007.73
2022-08-16T18:50:21.113Z,1007.85
2022-08-16T18:55:20.231Z,1007.85
2022-08-16T19:00:19.409Z,1007.87
2022-08-16T19:05:18.733Z,1007.98
2022-08-16T19:10:18.042Z,1008.00
2022-08-16T19:15:18.785Z,1008.11
2022-08-16T19:20:16.558Z,1008.10
2022-08-16T19:25:15.906Z,1008.24
2022-08-16T19:30:16.169Z,1008.34
2022-08-16T19:35:14.585Z,1008.33
2022-08-16T19:40:37.385Z,1008.34
2022-08-16T19:45:12.976Z,1008.33
2022-08-16T19:50:12.336Z,1008.33
2022-08-16T19:55:11.573Z,1008.26
2022-08-16T20:00:12.874Z,1008.22
2022-08-16T20:05:10.108Z,1008.23
2022-08-16T20:10:08.356Z,1008.28
2022-08-16T20:15:08.554Z,1008.26
2022-08-16T20:20:08.527Z,1008.19
2022-08-16T20:25:06.793Z,1008.22
2022-08-16T20:30:05.904Z,1008.21
2022-08-16T20:35:05.128Z,1008.18
2022-08-16T20:40:28.394Z,1008.22
2022-08-16T20:45:03.710Z,1008.24
2022-08-16T20:50:06.011Z,1008.21
2022-08-16T20:55:02.204Z,1008.27
2022-08-16T21:00:01.294Z,1008.26
2022-08-16T21:05:01.624Z,1008.31
2022-08-16T21:09:58.960Z,1008.28
2022-08-16T21:14:59.271Z,1008.25
2022-08-16T21:19:59.395Z,1008.25
2022-08-16T21:24:58.690Z,1008.38
2022-08-16T21:29:57.200Z,1008.29
2022-08-16T21:34:56.203Z,1008.37
2022-08-16T21:39:55.411Z,1008.33
2022-08-16T21:44:56.587Z,1008.32
2022-08-16T21:49:53.964Z,1008.36
2022-08-16T21:54:54.187Z,1008.48
2022-08-16T21:59:52.338Z,1008.34
2022-08-16T22:04:51.676Z,1008.35
2022-08-16T22:09:51.301Z,1008.43
2022-08-16T22:14:51.223Z,1008.18
2022-08-16T22:19:49.572Z,1008.35
2022-08-16T22:24:49.751Z,1008.55
2022-08-16T22:29:47.858Z,1008.56
2022-08-16T22:34:48.145Z,1008.54
2022-08-16T22:39:47.510Z,1008.63
2022-08-16T22:44:46.679Z,1008.62
2022-08-16T22:49:45.001Z,1008.58
2022-08-16T22:54:48.695Z,1008.47
2022-08-16T22:59:43.578Z,1008.51
2022-08-16T23:04:42.887Z,1008.44
2022-08-16T23:09:42.199Z,1008.31
2022-08-16T23:14:42.549Z,1008.48
2022-08-16T23:19:41.895Z,1008.46
2022-08-16T23:24:56.059Z,1008.43
2022-08-16T23:29:40.235Z,1008.57
2022-08-16T23:34:39.405Z,1008.52
2022-08-16T23:39:39.786Z,1008.54
2022-08-16T23:44:56.003Z,1008.45
2022-08-16T23:50:00.471Z,1008.46
2022-08-16T23:54:35.381Z,1008.39
2022-08-16T23:59:45.257Z,1008.27
